ROMMA est une association bénévole à but non lucratif. Votre soutien est indispensable : ADHERER à ROMMA ou FAIRE un DON

Granges-lès-Beaumont - (26, Drôme)

Drôme des Collines (155 m)   Longitude: 04°58'E   Latitude: 45°03'N Station partenaire n°123
 

Détail journalier du     <<     >>

Température Precipitation Humidité Pression Vent Dir Rafale Dir. rafale Ensol.
Heure (°C) (mm) (%) (hPa) (km/h) (km/h) (min)
01:00 8.4085102517SSO39SSO0
02:00 7.9086102512SSO24S0
03:00 7.208710258SSO19SO0
04:00 5.708810243SE8SE0
05:00 4.508910244ESE8ESE0
06:00 4.509010246ESE13SE0
07:00 4.609010249SE19SE0
08:00 4.309010246SE21E0
09:00 6.608810243ESE8SE50
10:00 8.208210248SSE24S20
11:00 10.3074102410SSE31S20
12:00 12.1061102316SSO52SSO50
13:00 12.7060102222SSO47S60
14:00 13.2055102221SSO42S60
15:00 13.4050102224SSO53SSO60
16:00 13.8052102220SSO44S60
17:00 12.6056102120SSO42SSO60
18:00 11.1064102116SSO34SO40
19:00 10.1068102211SSO26S0
20:00 9.3069102211S32S0
21:00 8.207310226S15S0
22:00 7.307710235SSE15S0
23:00 6.608010236SSE13SE0
minuit 5.508110233SSE10SSE0

Graphique du 18-02-2019

 

Serveur OMMA